Fort Resolution, Canada
Current Conditions -  °F | °C
As of 8:00 PM on Wednesday 26 Nov 2014 (Local Time) from CYHY Reporting Station
Few Clouds Few Clouds  
Wind Chill: -26°   Ceiling: Unl
Heat Index: -4°   Visibility: 15mi
Dew Point: -9°   Wind: 17mph
Humidity: 78%   Direction: 310°NW
Pressure: 30.5"   Gusts: NA
Location:  61.17°N, 113.68°W
Report Text: CYHY 270300Z 31015KT 15SM FEW100 M20/M23 A3050 RMK AS2 SLP349
Loading
Personal Weather Stations






























Interactive Weather Map New forecast layout! Learn more

10-Day Weather Forecast

Advertisements
Track Severe Weather on mobile